createdAt,value
2019-03-05T00:00:12.781Z,8.90
2019-03-05T00:03:01.015Z,8.90
2019-03-05T00:05:47.299Z,8.80
2019-03-05T00:08:34.444Z,8.80
2019-03-05T00:11:21.556Z,8.80
2019-03-05T00:14:08.647Z,8.80
2019-03-05T00:16:55.940Z,8.80
2019-03-05T00:19:43.636Z,8.80
2019-03-05T00:22:30.378Z,8.80
2019-03-05T00:25:16.885Z,8.70
2019-03-05T00:28:03.980Z,8.60
2019-03-05T00:30:51.133Z,8.60
2019-03-05T00:33:37.675Z,8.50
2019-03-05T00:36:24.516Z,8.50
2019-03-05T00:39:10.902Z,8.50
2019-03-05T00:41:57.685Z,8.40
2019-03-05T00:44:44.843Z,8.50
2019-03-05T00:47:31.948Z,8.60
2019-03-05T00:50:18.772Z,8.50
2019-03-05T00:53:05.852Z,8.50
2019-03-05T00:55:52.312Z,8.50
2019-03-05T00:58:39.131Z,8.60
2019-03-05T01:01:25.472Z,8.60
2019-03-05T01:04:12.616Z,8.60
2019-03-05T01:06:59.543Z,8.60
2019-03-05T01:09:45.874Z,8.60
2019-03-05T01:12:33.040Z,8.50
2019-03-05T01:15:19.599Z,8.60
2019-03-05T01:18:06.304Z,8.60
2019-03-05T01:20:53.024Z,8.60
2019-03-05T01:23:39.704Z,8.60
2019-03-05T01:26:26.687Z,8.60
2019-03-05T01:29:13.804Z,8.60
2019-03-05T01:35:26.359Z,8.70
2019-03-05T01:38:13.212Z,8.70
2019-03-05T01:41:04.807Z,8.70
2019-03-05T01:43:51.960Z,8.60
2019-03-05T01:46:38.388Z,8.60
2019-03-05T01:49:25.560Z,8.70
2019-03-05T01:52:13.471Z,8.60
2019-03-05T01:55:00.352Z,8.70
2019-03-05T01:57:46.820Z,8.70
2019-03-05T02:00:33.939Z,8.80
2019-03-05T02:03:20.941Z,8.70
2019-03-05T02:06:07.773Z,8.70
2019-03-05T02:08:54.352Z,8.70
2019-03-05T02:11:40.692Z,8.80
2019-03-05T02:14:28.699Z,8.80
2019-03-05T02:17:15.553Z,8.80
2019-03-05T02:20:02.561Z,8.80
2019-03-05T02:22:49.052Z,8.70
2019-03-05T02:25:35.987Z,8.60
2019-03-05T02:28:23.091Z,8.50
2019-03-05T02:31:09.833Z,8.30
2019-03-05T02:33:57.048Z,8.40
2019-03-05T02:36:43.753Z,8.40
2019-03-05T02:39:31.492Z,8.50
2019-03-05T02:42:18.342Z,8.40
2019-03-05T02:45:05.367Z,8.20
2019-03-05T02:47:51.555Z,8.20
2019-03-05T02:50:38.783Z,8.20
2019-03-05T02:53:25.957Z,8.20
2019-03-05T02:56:12.635Z,8.10
2019-03-05T02:58:59.789Z,8.00
2019-03-05T03:05:18.250Z,8.10
2019-03-05T03:08:12.341Z,8.10
2019-03-05T03:10:58.980Z,8.10
2019-03-05T03:13:45.295Z,8.20
2019-03-05T03:16:33.112Z,8.20
2019-03-05T03:19:19.876Z,8.30
2019-03-05T03:22:07.104Z,8.10
2019-03-05T03:24:53.460Z,8.10
2019-03-05T03:27:40.194Z,8.20
2019-03-05T03:30:26.721Z,8.20
2019-03-05T03:33:13.655Z,8.20
2019-03-05T03:36:01.462Z,8.30
2019-03-05T03:38:48.807Z,8.30
2019-03-05T03:41:33.776Z,8.20
2019-03-05T03:44:27.856Z,8.20
2019-03-05T03:47:14.497Z,8.20
2019-03-05T03:50:01.534Z,8.20
2019-03-05T03:52:48.595Z,8.20
2019-03-05T03:55:35.740Z,8.20
2019-03-05T03:58:22.805Z,8.20
2019-03-05T04:01:09.401Z,8.20
2019-03-05T04:03:56.559Z,8.20
2019-03-05T04:06:42.947Z,8.20
2019-03-05T04:09:29.945Z,8.20
2019-03-05T04:12:16.529Z,8.20
2019-03-05T04:15:03.548Z,8.20
2019-03-05T04:17:49.782Z,8.20
2019-03-05T04:20:54.907Z,8.30
2019-03-05T04:23:42.014Z,8.20
2019-03-05T04:26:29.148Z,8.30
2019-03-05T04:29:15.588Z,8.30
2019-03-05T04:32:02.776Z,8.30
2019-03-05T04:34:49.267Z,8.30
2019-03-05T04:37:36.367Z,8.30
2019-03-05T04:40:22.619Z,8.30
2019-03-05T04:43:09.840Z,8.30
2019-03-05T04:46:03.716Z,8.30
2019-03-05T04:49:16.812Z,8.30
2019-03-05T04:52:05.696Z,8.30
2019-03-05T04:54:51.951Z,8.30
2019-03-05T04:57:38.741Z,8.40
2019-03-05T05:00:25.540Z,8.40
2019-03-05T05:03:12.672Z,8.40
2019-03-05T05:05:59.227Z,8.40
2019-03-05T05:08:46.075Z,8.40
2019-03-05T05:11:32.873Z,8.40
2019-03-05T05:14:19.175Z,8.40
2019-03-05T05:17:05.740Z,8.50
2019-03-05T05:19:52.439Z,8.40
2019-03-05T05:22:39.163Z,8.40
2019-03-05T05:25:26.267Z,8.30
2019-03-05T05:28:12.807Z,8.20
2019-03-05T05:30:59.068Z,8.20
2019-03-05T05:33:46.167Z,8.20
2019-03-05T05:36:33.316Z,8.10
2019-03-05T05:39:20.412Z,8.10
2019-03-05T05:42:07.118Z,8.10
2019-03-05T05:44:53.380Z,8.00
2019-03-05T05:47:40.542Z,8.00
2019-03-05T05:50:26.827Z,8.00
2019-03-05T05:59:01.305Z,8.00
2019-03-05T06:01:48.104Z,8.00
2019-03-05T06:04:35.088Z,7.90
2019-03-05T06:07:21.815Z,8.00
2019-03-05T06:10:08.287Z,8.00
2019-03-05T06:12:55.956Z,7.90
2019-03-05T06:15:42.636Z,7.90
2019-03-05T06:18:17.350Z,8.00
2019-03-05T06:21:03.512Z,8.00
2019-03-05T06:23:49.937Z,7.90
2019-03-05T06:26:36.876Z,7.90
2019-03-05T06:29:23.680Z,8.00
2019-03-05T06:32:10.288Z,8.00
2019-03-05T06:34:57.496Z,8.00
2019-03-05T06:37:44.608Z,8.10
2019-03-05T06:40:31.605Z,8.10
2019-03-05T06:43:18.555Z,8.10
2019-03-05T06:46:05.479Z,8.10
2019-03-05T06:48:52.349Z,8.20
2019-03-05T06:51:39.323Z,8.10
2019-03-05T06:54:25.601Z,8.20
2019-03-05T06:57:12.300Z,8.30
2019-03-05T06:59:58.643Z,8.30
2019-03-05T07:02:45.636Z,8.30
2019-03-05T07:05:32.382Z,8.20
2019-03-05T07:08:18.708Z,8.30
2019-03-05T07:11:06.453Z,8.30
2019-03-05T07:13:53.409Z,8.30
2019-03-05T07:16:40.583Z,8.30
2019-03-05T07:19:28.484Z,8.40
2019-03-05T07:22:15.247Z,8.30
2019-03-05T07:25:01.668Z,8.30
2019-03-05T07:27:49.059Z,8.30
2019-03-05T07:30:36.017Z,8.50
2019-03-05T07:33:22.480Z,8.40
2019-03-05T07:36:09.255Z,8.50
2019-03-05T07:38:56.787Z,8.50
2019-03-05T07:41:43.864Z,8.50
2019-03-05T07:44:30.135Z,8.50
2019-03-05T07:47:16.731Z,8.60
2019-03-05T07:50:03.124Z,8.60
2019-03-05T07:52:38.024Z,8.60
2019-03-05T07:59:21.700Z,8.50
2019-03-05T08:02:08.828Z,8.60
2019-03-05T08:04:55.184Z,8.60
2019-03-05T08:07:41.800Z,8.60
2019-03-05T08:10:28.804Z,8.60
2019-03-05T08:13:15.798Z,8.50
2019-03-05T08:16:21.685Z,8.60
2019-03-05T08:18:56.448Z,8.60
2019-03-05T08:21:50.399Z,8.60
2019-03-05T08:24:37.253Z,8.60
2019-03-05T08:27:24.188Z,8.70
2019-03-05T08:30:14.570Z,8.80
2019-03-05T08:32:58.839Z,8.90
2019-03-05T08:35:45.760Z,8.90
2019-03-05T08:38:32.579Z,8.90
2019-03-05T08:41:19.400Z,9.00
2019-03-05T08:44:06.629Z,9.00
2019-03-05T08:46:53.172Z,9.10
2019-03-05T08:49:39.700Z,9.00
2019-03-05T08:52:14.495Z,8.90
2019-03-05T08:54:49.335Z,8.90
2019-03-05T08:57:36.256Z,9.00
2019-03-05T09:00:23.003Z,8.80
2019-03-05T09:03:09.304Z,8.90
2019-03-05T09:05:56.277Z,8.90
2019-03-05T09:08:43.384Z,9.00
2019-03-05T09:11:29.876Z,9.00
2019-03-05T09:14:17.032Z,9.00
2019-03-05T09:17:04.409Z,9.00
2019-03-05T09:19:50.715Z,9.00
2019-03-05T09:22:37.253Z,8.90
2019-03-05T09:25:23.981Z,9.10
2019-03-05T09:28:11.034Z,9.10
2019-03-05T09:30:57.546Z,9.10
2019-03-05T09:33:44.733Z,9.10
2019-03-05T09:36:31.528Z,9.10
2019-03-05T09:39:18.402Z,9.20
2019-03-05T09:42:04.764Z,9.10
2019-03-05T09:44:51.667Z,9.10
2019-03-05T09:53:46.712Z,9.20
2019-03-05T09:56:33.865Z,9.00
2019-03-05T09:59:20.118Z,9.10
2019-03-05T10:02:06.864Z,9.10
2019-03-05T10:04:53.751Z,9.10
2019-03-05T10:07:40.871Z,9.10
2019-03-05T10:13:31.965Z,9.20
2019-03-05T10:16:18.275Z,9.20
2019-03-05T10:19:05.069Z,9.20
2019-03-05T10:21:52.072Z,9.30
2019-03-05T10:24:38.403Z,9.30
2019-03-05T10:27:25.152Z,9.30
2019-03-05T10:30:12.240Z,9.30
2019-03-05T10:32:59.568Z,9.30
2019-03-05T10:35:46.260Z,9.30
2019-03-05T10:38:33.413Z,9.30
2019-03-05T10:41:20.169Z,9.30
2019-03-05T10:44:06.439Z,9.50
2019-03-05T10:46:55.938Z,9.50
2019-03-05T10:49:41.494Z,9.60
2019-03-05T10:52:29.535Z,9.40
2019-03-05T10:55:25.858Z,9.40
2019-03-05T10:58:04.812Z,9.30
2019-03-05T11:00:51.481Z,9.30
2019-03-05T11:06:52.039Z,9.40
2019-03-05T11:09:39.023Z,9.40
2019-03-05T11:12:25.794Z,9.40
2019-03-05T11:15:12.691Z,9.30
2019-03-05T11:17:58.967Z,9.30
2019-03-05T11:20:45.373Z,9.40
2019-03-05T11:23:31.742Z,9.40
2019-03-05T11:26:18.269Z,9.50
2019-03-05T11:29:05.216Z,9.50
2019-03-05T11:31:51.503Z,9.50
2019-03-05T11:34:37.735Z,9.50
2019-03-05T11:37:24.700Z,9.60
2019-03-05T11:40:20.705Z,9.70
2019-03-05T11:42:59.431Z,9.70
2019-03-05T11:45:46.389Z,9.70
2019-03-05T11:48:34.448Z,9.80
2019-03-05T11:51:20.903Z,9.80
2019-03-05T11:54:07.811Z,9.70
2019-03-05T11:56:54.111Z,9.70
2019-03-05T11:59:41.284Z,9.80
2019-03-05T12:02:28.225Z,9.90
2019-03-05T12:05:14.472Z,9.90
2019-03-05T12:08:01.476Z,9.80
2019-03-05T12:10:47.971Z,9.90
2019-03-05T12:13:35.060Z,9.80
2019-03-05T12:16:21.771Z,9.90
2019-03-05T12:19:08.176Z,9.70
2019-03-05T12:21:55.067Z,9.70
2019-03-05T12:24:41.772Z,9.70
2019-03-05T12:27:28.220Z,9.70
2019-03-05T12:30:14.672Z,9.70
2019-03-05T12:33:01.431Z,9.70
2019-03-05T12:35:48.471Z,9.80
2019-03-05T12:38:35.333Z,9.70
2019-03-05T12:41:22.387Z,9.80
2019-03-05T12:44:08.708Z,9.80
2019-03-05T12:46:55.485Z,9.90
2019-03-05T12:49:41.788Z,9.90
2019-03-05T12:52:28.491Z,9.90
2019-03-05T12:55:15.318Z,9.90
2019-03-05T12:58:02.415Z,9.80
2019-03-05T13:00:49.088Z,9.90
2019-03-05T13:03:37.230Z,10.00
2019-03-05T13:06:22.344Z,9.90
2019-03-05T13:09:19.490Z,9.90
2019-03-05T13:12:25.827Z,9.90
2019-03-05T13:15:12.751Z,10.00
2019-03-05T13:17:59.752Z,9.80
2019-03-05T13:20:46.924Z,9.80
2019-03-05T13:23:34.013Z,9.70
2019-03-05T13:26:20.280Z,9.80
2019-03-05T13:29:07.484Z,9.80
2019-03-05T13:31:55.512Z,9.80
2019-03-05T13:34:41.713Z,9.70
2019-03-05T13:37:28.683Z,9.70
2019-03-05T13:40:19.459Z,9.70
2019-03-05T13:43:06.368Z,9.60
2019-03-05T13:45:53.079Z,9.60
2019-03-05T13:48:40.356Z,9.50
2019-03-05T13:51:27.407Z,9.70
2019-03-05T13:54:14.595Z,9.70
2019-03-05T13:57:01.397Z,9.60
2019-03-05T13:59:48.691Z,9.60
2019-03-05T14:02:35.416Z,9.60
2019-03-05T14:05:22.144Z,9.70
2019-03-05T14:08:08.965Z,9.70
2019-03-05T14:10:55.260Z,9.80
2019-03-05T14:13:41.719Z,9.90
2019-03-05T14:16:28.467Z,9.90
2019-03-05T14:19:14.975Z,10.00
2019-03-05T14:22:01.544Z,10.00
2019-03-05T14:24:47.859Z,10.00
2019-03-05T14:27:34.632Z,10.00
2019-03-05T14:30:21.488Z,10.00
2019-03-05T14:33:08.486Z,10.10
2019-03-05T14:35:55.128Z,10.10
2019-03-05T14:38:41.401Z,10.20
2019-03-05T14:41:28.114Z,10.30
2019-03-05T14:44:15.263Z,10.30
2019-03-05T14:47:02.225Z,10.20
2019-03-05T14:49:49.219Z,10.30
2019-03-05T14:52:35.681Z,10.30
2019-03-05T14:55:22.438Z,10.30
2019-03-05T14:58:08.700Z,10.10
2019-03-05T15:00:55.664Z,10.00
2019-03-05T15:03:42.730Z,9.90
2019-03-05T15:06:29.448Z,9.80
2019-03-05T15:09:16.478Z,9.60
2019-03-05T15:12:02.740Z,9.60
2019-03-05T15:14:49.799Z,9.30
2019-03-05T15:17:36.099Z,9.10
2019-03-05T15:20:23.091Z,9.10
2019-03-05T15:23:09.548Z,8.90
2019-03-05T15:25:56.164Z,8.70
2019-03-05T15:28:55.488Z,8.80
2019-03-05T15:31:31.177Z,8.70
2019-03-05T15:34:18.261Z,8.70
2019-03-05T15:37:04.845Z,8.80
2019-03-05T15:39:51.680Z,9.00
2019-03-05T15:42:38.561Z,9.10
2019-03-05T15:45:24.892Z,9.20
2019-03-05T15:48:12.066Z,9.10
2019-03-05T15:50:58.442Z,9.10
2019-03-05T15:56:32.460Z,9.10
2019-03-05T15:59:19.587Z,9.10
2019-03-05T16:02:06.346Z,9.20
2019-03-05T16:04:52.704Z,9.20
2019-03-05T16:07:39.529Z,9.10
2019-03-05T16:10:26.115Z,8.80
2019-03-05T16:13:15.391Z,9.00
2019-03-05T16:16:00.308Z,9.20
2019-03-05T16:18:46.544Z,9.20
2019-03-05T16:21:37.188Z,9.30
2019-03-05T16:24:21.975Z,9.30
2019-03-05T16:27:09.000Z,9.30
2019-03-05T16:29:57.153Z,8.90
2019-03-05T16:32:47.801Z,8.80
2019-03-05T16:35:53.453Z,8.50
2019-03-05T16:38:59.236Z,8.40
2019-03-05T16:42:06.036Z,8.10
2019-03-05T16:45:12.118Z,8.00
2019-03-05T16:48:18.139Z,8.10
2019-03-05T16:51:13.848Z,8.40
2019-03-05T16:54:14.951Z,8.30
2019-03-05T16:57:23.543Z,8.60
2019-03-05T17:00:16.895Z,8.80
2019-03-05T17:03:22.896Z,8.90
2019-03-05T17:06:32.220Z,8.90
2019-03-05T17:09:38.352Z,8.90
2019-03-05T17:12:25.446Z,8.90
2019-03-05T17:15:11.691Z,9.00
2019-03-05T17:17:58.919Z,8.90
2019-03-05T17:20:45.394Z,8.90
2019-03-05T17:23:32.216Z,8.80
2019-03-05T17:26:19.659Z,8.90
2019-03-05T17:29:06.325Z,8.90
2019-03-05T17:31:52.885Z,8.90
2019-03-05T17:34:39.867Z,9.00
2019-03-05T17:37:26.613Z,9.00
2019-03-05T17:40:13.724Z,9.00
2019-03-05T17:43:00.128Z,8.90
2019-03-05T17:45:47.795Z,9.00
2019-03-05T17:48:34.786Z,9.00
2019-03-05T17:51:21.252Z,9.00
2019-03-05T17:54:07.615Z,9.00
2019-03-05T17:56:54.127Z,9.00
2019-03-05T17:59:41.147Z,9.00
2019-03-05T18:02:27.899Z,9.00
2019-03-05T18:05:14.192Z,9.00
2019-03-05T18:08:00.993Z,9.00
2019-03-05T18:10:36.068Z,9.10
2019-03-05T18:13:30.163Z,9.10
2019-03-05T18:16:17.047Z,9.20
2019-03-05T18:19:03.537Z,9.20
2019-03-05T18:21:50.156Z,9.20
2019-03-05T18:24:36.794Z,9.20
2019-03-05T18:27:23.503Z,9.20
2019-03-05T18:30:10.016Z,9.20
2019-03-05T18:32:56.469Z,9.10
2019-03-05T18:35:43.336Z,9.20
2019-03-05T18:38:30.360Z,9.20
2019-03-05T18:41:17.232Z,9.20
2019-03-05T18:44:04.203Z,9.20
2019-03-05T18:46:51.140Z,9.10
2019-03-05T18:49:37.512Z,9.10
2019-03-05T18:52:24.883Z,9.10
2019-03-05T18:55:11.576Z,9.00
2019-03-05T18:57:57.944Z,9.00
2019-03-05T19:00:44.228Z,9.10
2019-03-05T19:03:30.429Z,9.00
2019-03-05T19:06:17.032Z,9.10
2019-03-05T19:09:04.076Z,9.10
2019-03-05T19:11:51.960Z,9.10
2019-03-05T19:14:38.376Z,9.10
2019-03-05T19:17:24.817Z,9.10
2019-03-05T19:20:11.172Z,9.10
2019-03-05T19:22:59.838Z,9.20
2019-03-05T19:25:46.890Z,9.30
2019-03-05T19:28:34.068Z,9.20
2019-03-05T19:31:21.088Z,9.30
2019-03-05T19:34:07.883Z,9.30
2019-03-05T19:36:54.483Z,9.30
2019-03-05T19:39:41.400Z,9.30
2019-03-05T19:42:27.888Z,9.30
2019-03-05T19:45:14.324Z,9.30
2019-03-05T19:48:00.631Z,9.30
2019-03-05T19:50:47.679Z,9.30
2019-03-05T19:53:34.008Z,9.30
2019-03-05T19:56:20.996Z,9.20
2019-03-05T19:59:07.831Z,9.20
2019-03-05T20:01:54.691Z,9.40
2019-03-05T20:04:41.707Z,9.40
2019-03-05T20:07:28.460Z,9.30
2019-03-05T20:10:15.712Z,9.30
2019-03-05T20:13:02.759Z,9.30
2019-03-05T20:15:49.841Z,9.30
2019-03-05T20:18:36.625Z,9.30
2019-03-05T20:21:23.441Z,9.30
2019-03-05T20:24:09.633Z,9.20
2019-03-05T20:26:56.705Z,9.30
2019-03-05T20:29:42.947Z,9.30
2019-03-05T20:32:30.000Z,9.40
2019-03-05T20:35:17.307Z,9.40
2019-03-05T20:38:03.690Z,9.30
2019-03-05T20:40:50.998Z,9.40
2019-03-05T20:43:37.688Z,9.40
2019-03-05T20:46:24.780Z,9.50
2019-03-05T20:49:11.156Z,9.40
2019-03-05T20:51:58.996Z,9.40
2019-03-05T20:54:46.313Z,9.30
2019-03-05T20:57:33.119Z,9.40
2019-03-05T21:00:24.358Z,9.40
2019-03-05T21:03:11.199Z,9.40
2019-03-05T21:05:58.662Z,9.50
2019-03-05T21:08:45.696Z,9.40
2019-03-05T21:11:32.131Z,9.50
2019-03-05T21:14:18.391Z,9.50
2019-03-05T21:17:05.520Z,9.40
2019-03-05T21:19:53.632Z,9.40
2019-03-05T21:22:40.563Z,9.50
2019-03-05T21:25:27.096Z,9.60
2019-03-05T21:28:13.316Z,9.50
2019-03-05T21:31:00.120Z,9.50
2019-03-05T21:33:46.460Z,9.60
2019-03-05T21:36:33.417Z,9.60
2019-03-05T21:39:20.677Z,9.50
2019-03-05T21:42:07.252Z,9.50
2019-03-05T21:44:54.395Z,9.50
2019-03-05T21:47:42.117Z,9.50
2019-03-05T21:50:28.729Z,9.60
2019-03-05T21:53:15.716Z,9.60
2019-03-05T21:56:01.971Z,9.70
2019-03-05T21:58:48.915Z,9.70
2019-03-05T22:01:35.532Z,9.70
2019-03-05T22:04:22.120Z,9.80
2019-03-05T22:07:08.920Z,9.80
2019-03-05T22:09:55.771Z,9.90
2019-03-05T22:12:42.201Z,9.90
2019-03-05T22:15:29.008Z,9.90
2019-03-05T22:18:15.264Z,10.00
2019-03-05T22:21:02.528Z,10.00
2019-03-05T22:23:49.684Z,10.00
2019-03-05T22:26:36.355Z,10.00
2019-03-05T22:29:22.628Z,10.10
2019-03-05T22:32:09.163Z,10.10
2019-03-05T22:34:55.476Z,10.20
2019-03-05T22:37:42.039Z,10.10
2019-03-05T22:40:28.923Z,10.20
2019-03-05T22:43:15.995Z,10.30
2019-03-05T22:46:02.463Z,10.20
2019-03-05T22:48:48.793Z,10.20
2019-03-05T22:51:35.349Z,10.30
2019-03-05T22:54:22.292Z,10.40
2019-03-05T22:57:09.832Z,10.30
2019-03-05T22:59:57.812Z,10.30
2019-03-05T23:02:44.671Z,10.40
2019-03-05T23:05:31.212Z,10.30
2019-03-05T23:08:18.054Z,10.40
2019-03-05T23:11:04.580Z,10.50
2019-03-05T23:13:51.624Z,10.50
2019-03-05T23:16:38.443Z,10.50
2019-03-05T23:19:25.368Z,10.50
2019-03-05T23:22:13.167Z,10.60
2019-03-05T23:25:00.249Z,10.50
2019-03-05T23:27:47.124Z,10.50
2019-03-05T23:30:34.015Z,10.60
2019-03-05T23:33:20.230Z,10.60
2019-03-05T23:36:06.972Z,10.60
2019-03-05T23:38:53.918Z,10.60
2019-03-05T23:41:40.627Z,10.50
2019-03-05T23:44:27.516Z,10.50
2019-03-05T23:47:14.525Z,10.50
2019-03-05T23:50:00.940Z,10.50
2019-03-05T23:52:47.880Z,10.60
2019-03-05T23:55:34.192Z,10.50
2019-03-05T23:58:20.643Z,10.50
